sensor_id;sensor_type;location;lat;lon;timestamp;P1;durP1;ratioP1;P2;durP2;ratioP2
47335;SDS011;33068;51.990;5.926;2022-11-15T00:01:21;58.45;;;22.15;;
47335;SDS011;33068;51.990;5.926;2022-11-15T00:04:08;56.92;;;21.95;;
47335;SDS011;33068;51.990;5.926;2022-11-15T00:06:54;60.10;;;22.58;;
47335;SDS011;33068;51.990;5.926;2022-11-15T00:09:40;64.40;;;23.17;;
47335;SDS011;33068;51.990;5.926;2022-11-15T00:12:26;56.60;;;22.33;;
47335;SDS011;33068;51.990;5.926;2022-11-15T00:17:58;53.78;;;19.38;;
47335;SDS011;33068;51.990;5.926;2022-11-15T00:20:45;55.97;;;21.33;;
47335;SDS011;33068;51.990;5.926;2022-11-15T00:23:30;45.00;;;21.50;;
47335;SDS011;33068;51.990;5.926;2022-11-15T00:26:16;50.65;;;22.27;;
47335;SDS011;33068;51.990;5.926;2022-11-15T00:29:02;50.70;;;21.23;;
47335;SDS011;33068;51.990;5.926;2022-11-15T00:31:47;50.38;;;21.25;;
47335;SDS011;33068;51.990;5.926;2022-11-15T00:34:33;44.53;;;19.20;;
47335;SDS011;33068;51.990;5.926;2022-11-15T00:37:20;44.35;;;19.92;;
47335;SDS011;33068;51.990;5.926;2022-11-15T00:40:06;51.40;;;21.10;;
47335;SDS011;33068;51.990;5.926;2022-11-15T00:42:54;42.00;;;20.35;;
47335;SDS011;33068;51.990;5.926;2022-11-15T00:45:39;53.85;;;22.40;;
47335;SDS011;33068;51.990;5.926;2022-11-15T00:48:24;47.35;;;20.33;;
47335;SDS011;33068;51.990;5.926;2022-11-15T00:51:10;51.73;;;22.63;;
47335;SDS011;33068;51.990;5.926;2022-11-15T00:53:57;50.25;;;21.20;;
47335;SDS011;33068;51.990;5.926;2022-11-15T00:56:43;47.50;;;22.58;;
47335;SDS011;33068;51.990;5.926;2022-11-15T00:59:29;52.37;;;23.13;;
47335;SDS011;33068;51.990;5.926;2022-11-15T01:02:14;54.90;;;23.80;;
47335;SDS011;33068;51.990;5.926;2022-11-15T01:05:00;50.97;;;21.98;;
47335;SDS011;33068;51.990;5.926;2022-11-15T01:07:45;54.10;;;23.93;;
47335;SDS011;33068;51.990;5.926;2022-11-15T01:10:32;53.45;;;22.13;;
47335;SDS011;33068;51.990;5.926;2022-11-15T01:13:18;51.85;;;23.42;;
47335;SDS011;33068;51.990;5.926;2022-11-15T01:16:07;47.78;;;21.98;;
47335;SDS011;33068;51.990;5.926;2022-11-15T01:18:54;51.45;;;23.23;;
47335;SDS011;33068;51.990;5.926;2022-11-15T01:21:40;48.37;;;22.27;;
47335;SDS011;33068;51.990;5.926;2022-11-15T01:24:26;61.00;;;22.73;;
47335;SDS011;33068;51.990;5.926;2022-11-15T01:27:13;48.40;;;21.27;;
47335;SDS011;33068;51.990;5.926;2022-11-15T01:29:59;53.08;;;24.45;;
47335;SDS011;33068;51.990;5.926;2022-11-15T01:32:44;51.75;;;23.30;;
47335;SDS011;33068;51.990;5.926;2022-11-15T01:35:30;48.50;;;22.43;;
47335;SDS011;33068;51.990;5.926;2022-11-15T01:38:16;46.97;;;21.97;;
47335;SDS011;33068;51.990;5.926;2022-11-15T01:41:01;48.08;;;24.60;;
47335;SDS011;33068;51.990;5.926;2022-11-15T01:43:51;51.25;;;23.58;;
47335;SDS011;33068;51.990;5.926;2022-11-15T01:46:38;51.45;;;23.95;;
47335;SDS011;33068;51.990;5.926;2022-11-15T01:49:24;54.50;;;24.00;;
47335;SDS011;33068;51.990;5.926;2022-11-15T01:52:12;49.63;;;22.77;;
47335;SDS011;33068;51.990;5.926;2022-11-15T01:55:03;43.53;;;23.17;;
47335;SDS011;33068;51.990;5.926;2022-11-15T01:57:53;46.90;;;22.67;;
47335;SDS011;33068;51.990;5.926;2022-11-15T02:00:43;50.85;;;23.17;;
47335;SDS011;33068;51.990;5.926;2022-11-15T02:03:30;52.38;;;22.58;;
47335;SDS011;33068;51.990;5.926;2022-11-15T02:06:21;45.95;;;23.35;;
47335;SDS011;33068;51.990;5.926;2022-11-15T02:09:07;43.97;;;23.30;;
47335;SDS011;33068;51.990;5.926;2022-11-15T02:11:53;44.63;;;22.85;;
47335;SDS011;33068;51.990;5.926;2022-11-15T02:14:40;49.10;;;22.33;;
47335;SDS011;33068;51.990;5.926;2022-11-15T02:17:54;46.92;;;22.45;;
47335;SDS011;33068;51.990;5.926;2022-11-15T02:23:56;43.38;;;20.45;;
47335;SDS011;33068;51.990;5.926;2022-11-15T02:27:21;42.17;;;22.13;;
47335;SDS011;33068;51.990;5.926;2022-11-15T02:30:25;43.47;;;21.35;;
47335;SDS011;33068;51.990;5.926;2022-11-15T02:33:23;47.65;;;22.42;;
47335;SDS011;33068;51.990;5.926;2022-11-15T02:36:15;44.80;;;22.70;;
47335;SDS011;33068;51.990;5.926;2022-11-15T02:39:10;49.30;;;21.77;;
47335;SDS011;33068;51.990;5.926;2022-11-15T02:42:00;48.15;;;23.33;;
47335;SDS011;33068;51.990;5.926;2022-11-15T02:45:09;48.13;;;22.48;;
47335;SDS011;33068;51.990;5.926;2022-11-15T02:47:59;44.03;;;23.02;;
47335;SDS011;33068;51.990;5.926;2022-11-15T02:50:47;51.65;;;24.48;;
47335;SDS011;33068;51.990;5.926;2022-11-15T02:53:33;45.72;;;23.60;;
47335;SDS011;33068;51.990;5.926;2022-11-15T02:56:19;46.95;;;23.35;;
47335;SDS011;33068;51.990;5.926;2022-11-15T02:59:08;52.63;;;23.53;;
47335;SDS011;33068;51.990;5.926;2022-11-15T03:02:08;48.33;;;23.85;;
47335;SDS011;33068;51.990;5.926;2022-11-15T03:05:04;50.70;;;22.48;;
47335;SDS011;33068;51.990;5.926;2022-11-15T03:08:01;46.03;;;22.73;;
47335;SDS011;33068;51.990;5.926;2022-11-15T03:10:56;46.08;;;22.45;;
47335;SDS011;33068;51.990;5.926;2022-11-15T03:13:50;41.25;;;21.92;;
47335;SDS011;33068;51.990;5.926;2022-11-15T03:16:42;42.60;;;22.63;;
47335;SDS011;33068;51.990;5.926;2022-11-15T03:19:34;48.10;;;22.83;;
47335;SDS011;33068;51.990;5.926;2022-11-15T03:22:27;44.35;;;22.23;;
47335;SDS011;33068;51.990;5.926;2022-11-15T03:25:16;43.78;;;23.65;;
47335;SDS011;33068;51.990;5.926;2022-11-15T03:28:05;42.80;;;22.60;;
47335;SDS011;33068;51.990;5.926;2022-11-15T03:30:53;44.30;;;22.88;;
47335;SDS011;33068;51.990;5.926;2022-11-15T03:33:39;39.38;;;21.90;;
47335;SDS011;33068;51.990;5.926;2022-11-15T03:36:27;37.92;;;22.38;;
47335;SDS011;33068;51.990;5.926;2022-11-15T03:39:15;39.00;;;21.17;;
47335;SDS011;33068;51.990;5.926;2022-11-15T03:42:04;39.05;;;22.65;;
47335;SDS011;33068;51.990;5.926;2022-11-15T03:45:01;36.35;;;20.75;;
47335;SDS011;33068;51.990;5.926;2022-11-15T03:47:53;42.65;;;21.92;;
47335;SDS011;33068;51.990;5.926;2022-11-15T03:50:43;43.60;;;22.35;;
47335;SDS011;33068;51.990;5.926;2022-11-15T03:53:30;41.35;;;21.95;;
47335;SDS011;33068;51.990;5.926;2022-11-15T03:56:17;41.33;;;21.50;;
47335;SDS011;33068;51.990;5.926;2022-11-15T03:59:02;40.22;;;21.92;;
47335;SDS011;33068;51.990;5.926;2022-11-15T04:01:48;45.53;;;22.67;;
47335;SDS011;33068;51.990;5.926;2022-11-15T04:04:34;41.03;;;22.77;;
47335;SDS011;33068;51.990;5.926;2022-11-15T04:07:19;45.28;;;22.98;;
47335;SDS011;33068;51.990;5.926;2022-11-15T04:10:06;44.30;;;23.17;;
47335;SDS011;33068;51.990;5.926;2022-11-15T04:12:54;49.70;;;22.92;;
47335;SDS011;33068;51.990;5.926;2022-11-15T04:15:39;47.45;;;23.25;;
47335;SDS011;33068;51.990;5.926;2022-11-15T04:18:25;48.60;;;24.90;;
47335;SDS011;33068;51.990;5.926;2022-11-15T04:21:10;42.95;;;23.02;;
47335;SDS011;33068;51.990;5.926;2022-11-15T04:24:13;50.03;;;23.48;;
47335;SDS011;33068;51.990;5.926;2022-11-15T04:26:59;40.50;;;22.93;;
47335;SDS011;33068;51.990;5.926;2022-11-15T04:29:46;43.55;;;23.05;;
47335;SDS011;33068;51.990;5.926;2022-11-15T04:32:32;47.40;;;23.67;;
47335;SDS011;33068;51.990;5.926;2022-11-15T04:35:18;45.70;;;23.90;;
47335;SDS011;33068;51.990;5.926;2022-11-15T04:38:04;47.08;;;24.60;;
47335;SDS011;33068;51.990;5.926;2022-11-15T04:40:51;45.97;;;24.40;;
47335;SDS011;33068;51.990;5.926;2022-11-15T04:43:37;48.90;;;24.53;;
47335;SDS011;33068;51.990;5.926;2022-11-15T04:46:24;46.88;;;23.75;;
47335;SDS011;33068;51.990;5.926;2022-11-15T04:49:10;42.60;;;22.83;;
47335;SDS011;33068;51.990;5.926;2022-11-15T04:51:55;43.50;;;23.98;;
47335;SDS011;33068;51.990;5.926;2022-11-15T04:54:41;44.75;;;23.02;;
47335;SDS011;33068;51.990;5.926;2022-11-15T04:57:27;42.43;;;22.50;;
47335;SDS011;33068;51.990;5.926;2022-11-15T05:00:13;44.47;;;22.90;;
47335;SDS011;33068;51.990;5.926;2022-11-15T05:03:02;50.58;;;24.23;;
47335;SDS011;33068;51.990;5.926;2022-11-15T05:06:06;43.38;;;23.40;;
47335;SDS011;33068;51.990;5.926;2022-11-15T05:08:51;46.08;;;23.08;;
47335;SDS011;33068;51.990;5.926;2022-11-15T05:11:37;39.45;;;23.15;;
47335;SDS011;33068;51.990;5.926;2022-11-15T05:14:23;45.70;;;23.83;;
47335;SDS011;33068;51.990;5.926;2022-11-15T05:17:08;43.07;;;23.40;;
47335;SDS011;33068;51.990;5.926;2022-11-15T05:19:55;42.88;;;24.20;;
47335;SDS011;33068;51.990;5.926;2022-11-15T05:22:41;47.65;;;23.67;;
47335;SDS011;33068;51.990;5.926;2022-11-15T05:25:26;47.73;;;25.00;;
47335;SDS011;33068;51.990;5.926;2022-11-15T05:28:12;39.10;;;23.67;;
47335;SDS011;33068;51.990;5.926;2022-11-15T05:31:00;44.90;;;23.75;;
47335;SDS011;33068;51.990;5.926;2022-11-15T05:33:45;45.25;;;23.58;;
47335;SDS011;33068;51.990;5.926;2022-11-15T05:36:33;45.42;;;24.08;;
47335;SDS011;33068;51.990;5.926;2022-11-15T05:39:21;44.35;;;24.02;;
47335;SDS011;33068;51.990;5.926;2022-11-15T05:42:08;42.63;;;23.08;;
47335;SDS011;33068;51.990;5.926;2022-11-15T05:44:56;42.92;;;23.08;;
47335;SDS011;33068;51.990;5.926;2022-11-15T05:47:43;45.10;;;22.50;;
47335;SDS011;33068;51.990;5.926;2022-11-15T05:50:29;46.85;;;23.50;;
47335;SDS011;33068;51.990;5.926;2022-11-15T05:53:17;42.25;;;22.55;;
47335;SDS011;33068;51.990;5.926;2022-11-15T05:56:04;51.55;;;24.10;;
47335;SDS011;33068;51.990;5.926;2022-11-15T05:58:51;42.88;;;22.02;;
47335;SDS011;33068;51.990;5.926;2022-11-15T06:01:38;41.40;;;22.08;;
47335;SDS011;33068;51.990;5.926;2022-11-15T06:04:24;38.17;;;21.52;;
47335;SDS011;33068;51.990;5.926;2022-11-15T06:07:09;37.78;;;21.20;;
47335;SDS011;33068;51.990;5.926;2022-11-15T06:09:56;42.80;;;20.60;;
47335;SDS011;33068;51.990;5.926;2022-11-15T06:12:42;45.58;;;22.75;;
47335;SDS011;33068;51.990;5.926;2022-11-15T06:15:28;41.83;;;21.00;;
47335;SDS011;33068;51.990;5.926;2022-11-15T06:18:13;43.77;;;22.80;;
47335;SDS011;33068;51.990;5.926;2022-11-15T06:21:06;37.80;;;22.23;;
47335;SDS011;33068;51.990;5.926;2022-11-15T06:23:53;42.10;;;21.67;;
47335;SDS011;33068;51.990;5.926;2022-11-15T06:26:40;35.97;;;20.17;;
47335;SDS011;33068;51.990;5.926;2022-11-15T06:29:25;39.47;;;20.55;;
47335;SDS011;33068;51.990;5.926;2022-11-15T06:32:11;41.00;;;20.25;;
47335;SDS011;33068;51.990;5.926;2022-11-15T06:34:57;44.67;;;21.83;;
47335;SDS011;33068;51.990;5.926;2022-11-15T06:37:42;42.55;;;21.65;;
47335;SDS011;33068;51.990;5.926;2022-11-15T06:40:28;37.70;;;21.33;;
47335;SDS011;33068;51.990;5.926;2022-11-15T06:43:15;41.10;;;21.03;;
47335;SDS011;33068;51.990;5.926;2022-11-15T06:46:00;36.03;;;22.05;;
47335;SDS011;33068;51.990;5.926;2022-11-15T06:48:47;42.58;;;23.10;;
47335;SDS011;33068;51.990;5.926;2022-11-15T06:51:35;40.75;;;22.13;;
47335;SDS011;33068;51.990;5.926;2022-11-15T06:54:21;43.83;;;23.60;;
47335;SDS011;33068;51.990;5.926;2022-11-15T06:57:06;42.67;;;22.37;;
47335;SDS011;33068;51.990;5.926;2022-11-15T06:59:53;40.70;;;22.60;;
47335;SDS011;33068;51.990;5.926;2022-11-15T07:02:38;46.05;;;23.63;;
47335;SDS011;33068;51.990;5.926;2022-11-15T07:05:24;44.45;;;24.85;;
47335;SDS011;33068;51.990;5.926;2022-11-15T07:08:10;43.90;;;22.38;;
47335;SDS011;33068;51.990;5.926;2022-11-15T07:10:57;42.60;;;23.47;;
47335;SDS011;33068;51.990;5.926;2022-11-15T07:13:44;44.20;;;23.08;;
47335;SDS011;33068;51.990;5.926;2022-11-15T07:16:31;42.60;;;24.17;;
47335;SDS011;33068;51.990;5.926;2022-11-15T07:19:16;45.60;;;23.20;;
47335;SDS011;33068;51.990;5.926;2022-11-15T07:22:02;38.17;;;23.00;;
47335;SDS011;33068;51.990;5.926;2022-11-15T07:24:47;41.23;;;22.20;;
47335;SDS011;33068;51.990;5.926;2022-11-15T07:27:33;42.43;;;22.63;;
47335;SDS011;33068;51.990;5.926;2022-11-15T07:30:19;43.27;;;22.00;;
47335;SDS011;33068;51.990;5.926;2022-11-15T07:33:06;40.95;;;21.92;;
47335;SDS011;33068;51.990;5.926;2022-11-15T07:35:51;42.47;;;22.70;;
47335;SDS011;33068;51.990;5.926;2022-11-15T07:38:37;41.10;;;22.73;;
47335;SDS011;33068;51.990;5.926;2022-11-15T07:41:22;46.63;;;22.13;;
47335;SDS011;33068;51.990;5.926;2022-11-15T07:44:08;41.00;;;22.17;;
47335;SDS011;33068;51.990;5.926;2022-11-15T07:46:53;37.40;;;20.83;;
47335;SDS011;33068;51.990;5.926;2022-11-15T07:49:40;40.70;;;19.60;;
47335;SDS011;33068;51.990;5.926;2022-11-15T07:52:26;40.90;;;21.77;;
47335;SDS011;33068;51.990;5.926;2022-11-15T07:55:12;38.10;;;20.90;;
47335;SDS011;33068;51.990;5.926;2022-11-15T07:58:01;40.25;;;21.55;;
47335;SDS011;33068;51.990;5.926;2022-11-15T08:00:47;45.30;;;21.67;;
47335;SDS011;33068;51.990;5.926;2022-11-15T08:03:33;40.15;;;21.13;;
47335;SDS011;33068;51.990;5.926;2022-11-15T08:06:20;33.20;;;19.30;;
47335;SDS011;33068;51.990;5.926;2022-11-15T08:09:05;35.13;;;19.58;;
47335;SDS011;33068;51.990;5.926;2022-11-15T08:11:51;40.17;;;20.27;;
47335;SDS011;33068;51.990;5.926;2022-11-15T08:14:36;35.78;;;19.25;;
47335;SDS011;33068;51.990;5.926;2022-11-15T08:17:22;38.40;;;19.92;;
47335;SDS011;33068;51.990;5.926;2022-11-15T08:20:08;36.03;;;18.67;;
47335;SDS011;33068;51.990;5.926;2022-11-15T08:22:56;38.63;;;17.67;;
47335;SDS011;33068;51.990;5.926;2022-11-15T08:25:42;35.63;;;18.88;;
47335;SDS011;33068;51.990;5.926;2022-11-15T08:28:28;29.40;;;17.63;;
47335;SDS011;33068;51.990;5.926;2022-11-15T08:31:15;31.90;;;17.83;;
47335;SDS011;33068;51.990;5.926;2022-11-15T08:34:02;28.17;;;16.98;;
47335;SDS011;33068;51.990;5.926;2022-11-15T08:39:35;31.67;;;16.00;;
47335;SDS011;33068;51.990;5.926;2022-11-15T08:42:21;33.17;;;16.92;;
47335;SDS011;33068;51.990;5.926;2022-11-15T08:45:07;31.10;;;18.27;;
47335;SDS011;33068;51.990;5.926;2022-11-15T08:47:54;30.67;;;17.73;;
47335;SDS011;33068;51.990;5.926;2022-11-15T08:50:40;36.60;;;19.42;;
47335;SDS011;33068;51.990;5.926;2022-11-15T08:53:27;35.38;;;17.42;;
47335;SDS011;33068;51.990;5.926;2022-11-15T08:56:14;29.57;;;17.90;;
47335;SDS011;33068;51.990;5.926;2022-11-15T08:58:59;27.73;;;17.35;;
47335;SDS011;33068;51.990;5.926;2022-11-15T09:01:45;32.27;;;17.90;;
47335;SDS011;33068;51.990;5.926;2022-11-15T09:04:31;32.60;;;17.80;;
47335;SDS011;33068;51.990;5.926;2022-11-15T09:07:16;29.67;;;16.77;;
47335;SDS011;33068;51.990;5.926;2022-11-15T09:10:02;31.23;;;17.35;;
47335;SDS011;33068;51.990;5.926;2022-11-15T09:12:50;28.42;;;16.00;;
47335;SDS011;33068;51.990;5.926;2022-11-15T09:15:36;28.95;;;14.82;;
47335;SDS011;33068;51.990;5.926;2022-11-15T09:18:22;25.97;;;14.33;;
47335;SDS011;33068;51.990;5.926;2022-11-15T09:21:08;29.60;;;16.48;;
47335;SDS011;33068;51.990;5.926;2022-11-15T09:26:39;22.75;;;13.68;;
47335;SDS011;33068;51.990;5.926;2022-11-15T09:29:27;23.55;;;13.40;;
47335;SDS011;33068;51.990;5.926;2022-11-15T09:32:13;23.80;;;13.57;;
47335;SDS011;33068;51.990;5.926;2022-11-15T09:34:58;23.23;;;12.67;;
47335;SDS011;33068;51.990;5.926;2022-11-15T09:37:44;18.70;;;12.23;;
47335;SDS011;33068;51.990;5.926;2022-11-15T09:40:30;20.60;;;12.20;;
47335;SDS011;33068;51.990;5.926;2022-11-15T09:43:26;18.75;;;11.93;;
47335;SDS011;33068;51.990;5.926;2022-11-15T09:46:19;25.00;;;12.38;;
47335;SDS011;33068;51.990;5.926;2022-11-15T09:49:10;19.20;;;11.23;;
47335;SDS011;33068;51.990;5.926;2022-11-15T09:51:57;21.08;;;12.45;;
47335;SDS011;33068;51.990;5.926;2022-11-15T09:54:26;24.65;;;12.05;;
47335;SDS011;33068;51.990;5.926;2022-11-15T09:56:56;18.98;;;11.82;;
47335;SDS011;33068;51.990;5.926;2022-11-15T09:59:35;17.70;;;11.30;;
47335;SDS011;33068;51.990;5.926;2022-11-15T10:02:21;16.52;;;10.48;;
47335;SDS011;33068;51.990;5.926;2022-11-15T10:04:58;19.02;;;11.05;;
47335;SDS011;33068;51.990;5.926;2022-11-15T10:07:27;15.73;;;9.68;;
47335;SDS011;33068;51.990;5.926;2022-11-15T10:10:04;13.30;;;9.40;;
47335;SDS011;33068;51.990;5.926;2022-11-15T10:12:40;15.18;;;8.68;;
47335;SDS011;33068;51.990;5.926;2022-11-15T10:15:14;14.73;;;9.05;;
47335;SDS011;33068;51.990;5.926;2022-11-15T10:18:04;11.18;;;8.63;;
47335;SDS011;33068;51.990;5.926;2022-11-15T10:20:40;13.60;;;7.38;;
47335;SDS011;33068;51.990;5.926;2022-11-15T10:23:13;9.68;;;7.35;;
47335;SDS011;33068;51.990;5.926;2022-11-15T10:25:42;9.45;;;6.50;;
47335;SDS011;33068;51.990;5.926;2022-11-15T10:28:11;12.65;;;6.18;;
47335;SDS011;33068;51.990;5.926;2022-11-15T10:30:43;8.68;;;6.00;;
47335;SDS011;33068;51.990;5.926;2022-11-15T10:33:17;7.78;;;5.35;;
47335;SDS011;33068;51.990;5.926;2022-11-15T10:35:57;8.80;;;5.05;;
47335;SDS011;33068;51.990;5.926;2022-11-15T10:38:50;7.05;;;5.38;;
47335;SDS011;33068;51.990;5.926;2022-11-15T10:41:23;9.45;;;4.65;;
47335;SDS011;33068;51.990;5.926;2022-11-15T10:44:08;7.45;;;5.47;;
47335;SDS011;33068;51.990;5.926;2022-11-15T10:46:39;8.40;;;4.65;;
47335;SDS011;33068;51.990;5.926;2022-11-15T10:49:13;4.10;;;3.70;;
47335;SDS011;33068;51.990;5.926;2022-11-15T10:51:42;5.32;;;2.88;;
47335;SDS011;33068;51.990;5.926;2022-11-15T10:54:13;3.42;;;2.67;;
47335;SDS011;33068;51.990;5.926;2022-11-15T10:56:48;2.55;;;2.35;;
47335;SDS011;33068;51.990;5.926;2022-11-15T10:59:17;3.47;;;1.85;;
47335;SDS011;33068;51.990;5.926;2022-11-15T11:01:50;6.22;;;1.85;;
47335;SDS011;33068;51.990;5.926;2022-11-15T11:04:19;3.22;;;2.10;;
47335;SDS011;33068;51.990;5.926;2022-11-15T11:06:46;6.05;;;1.70;;
47335;SDS011;33068;51.990;5.926;2022-11-15T11:09:21;5.22;;;2.10;;
47335;SDS011;33068;51.990;5.926;2022-11-15T11:11:51;2.03;;;1.77;;
47335;SDS011;33068;51.990;5.926;2022-11-15T11:14:20;7.72;;;1.92;;
47335;SDS011;33068;51.990;5.926;2022-11-15T11:16:49;4.18;;;1.58;;
47335;SDS011;33068;51.990;5.926;2022-11-15T11:19:35;6.10;;;2.42;;
47335;SDS011;33068;51.990;5.926;2022-11-15T11:22:12;5.07;;;1.33;;
47335;SDS011;33068;51.990;5.926;2022-11-15T11:24:47;8.98;;;1.85;;
47335;SDS011;33068;51.990;5.926;2022-11-15T11:27:27;3.20;;;1.52;;
47335;SDS011;33068;51.990;5.926;2022-11-15T11:30:09;5.10;;;1.20;;
47335;SDS011;33068;51.990;5.926;2022-11-15T11:32:54;5.53;;;1.40;;
47335;SDS011;33068;51.990;5.926;2022-11-15T11:35:32;4.00;;;1.38;;
47335;SDS011;33068;51.990;5.926;2022-11-15T11:38:15;2.03;;;1.00;;
47335;SDS011;33068;51.990;5.926;2022-11-15T11:41:00;3.03;;;0.90;;
47335;SDS011;33068;51.990;5.926;2022-11-15T11:43:36;2.00;;;0.40;;
47335;SDS011;33068;51.990;5.926;2022-11-15T11:46:16;1.65;;;0.70;;
47335;SDS011;33068;51.990;5.926;2022-11-15T11:48:59;3.15;;;0.85;;
47335;SDS011;33068;51.990;5.926;2022-11-15T11:54:05;2.45;;;0.60;;
47335;SDS011;33068;51.990;5.926;2022-11-15T11:56:39;4.65;;;1.27;;
47335;SDS011;33068;51.990;5.926;2022-11-15T11:59:10;1.10;;;0.88;;
47335;SDS011;33068;51.990;5.926;2022-11-15T12:01:46;3.72;;;0.93;;
47335;SDS011;33068;51.990;5.926;2022-11-15T12:04:14;7.60;;;0.75;;
47335;SDS011;33068;51.990;5.926;2022-11-15T12:06:48;12.20;;;1.08;;
47335;SDS011;33068;51.990;5.926;2022-11-15T12:09:20;7.82;;;0.98;;
47335;SDS011;33068;51.990;5.926;2022-11-15T12:11:55;4.50;;;0.70;;
47335;SDS011;33068;51.990;5.926;2022-11-15T12:14:31;1.25;;;0.57;;
47335;SDS011;33068;51.990;5.926;2022-11-15T12:17:02;2.85;;;0.40;;
47335;SDS011;33068;51.990;5.926;2022-11-15T12:19:29;2.40;;;0.47;;
47335;SDS011;33068;51.990;5.926;2022-11-15T12:22:00;6.43;;;0.90;;
47335;SDS011;33068;51.990;5.926;2022-11-15T12:24:32;4.32;;;0.60;;
47335;SDS011;33068;51.990;5.926;2022-11-15T12:27:05;1.20;;;0.68;;
47335;SDS011;33068;51.990;5.926;2022-11-15T12:29:39;4.78;;;1.15;;
47335;SDS011;33068;51.990;5.926;2022-11-15T12:32:14;4.68;;;1.23;;
47335;SDS011;33068;51.990;5.926;2022-11-15T12:35:00;2.63;;;1.08;;
47335;SDS011;33068;51.990;5.926;2022-11-15T12:40:24;2.35;;;0.40;;
47335;SDS011;33068;51.990;5.926;2022-11-15T12:43:01;5.10;;;0.47;;
47335;SDS011;33068;51.990;5.926;2022-11-15T12:45:31;2.67;;;0.60;;
47335;SDS011;33068;51.990;5.926;2022-11-15T12:51:22;4.53;;;0.73;;
47335;SDS011;33068;51.990;5.926;2022-11-15T13:06:02;9.00;;;0.77;;
47335;SDS011;33068;51.990;5.926;2022-11-15T13:08:48;1.88;;;0.43;;
47335;SDS011;33068;51.990;5.926;2022-11-15T13:20:02;3.10;;;0.70;;
47335;SDS011;33068;51.990;5.926;2022-11-15T13:22:45;2.47;;;0.73;;
47335;SDS011;33068;51.990;5.926;2022-11-15T13:25:33;5.65;;;1.70;;
47335;SDS011;33068;51.990;5.926;2022-11-15T13:28:24;3.60;;;1.40;;
47335;SDS011;33068;51.990;5.926;2022-11-15T13:30:57;4.32;;;1.05;;
47335;SDS011;33068;51.990;5.926;2022-11-15T13:33:26;5.82;;;1.05;;
47335;SDS011;33068;51.990;5.926;2022-11-15T13:35:57;5.18;;;2.25;;
47335;SDS011;33068;51.990;5.926;2022-11-15T13:38:27;5.47;;;2.50;;
47335;SDS011;33068;51.990;5.926;2022-11-15T13:40:57;5.28;;;2.60;;
47335;SDS011;33068;51.990;5.926;2022-11-15T13:43:33;9.80;;;2.53;;
47335;SDS011;33068;51.990;5.926;2022-11-15T13:46:07;5.80;;;1.75;;
47335;SDS011;33068;51.990;5.926;2022-11-15T13:51:05;2.95;;;1.17;;
47335;SDS011;33068;51.990;5.926;2022-11-15T13:53:37;5.25;;;0.90;;
47335;SDS011;33068;51.990;5.926;2022-11-15T13:56:08;3.80;;;0.98;;
47335;SDS011;33068;51.990;5.926;2022-11-15T13:58:36;5.93;;;0.68;;
47335;SDS011;33068;51.990;5.926;2022-11-15T14:01:06;4.88;;;0.55;;
47335;SDS011;33068;51.990;5.926;2022-11-15T14:03:41;4.70;;;0.55;;
47335;SDS011;33068;51.990;5.926;2022-11-15T14:06:15;1.65;;;0.30;;
47335;SDS011;33068;51.990;5.926;2022-11-15T14:08:57;2.65;;;0.63;;
47335;SDS011;33068;51.990;5.926;2022-11-15T14:11:30;1.48;;;0.55;;
47335;SDS011;33068;51.990;5.926;2022-11-15T14:14:11;2.38;;;0.50;;
47335;SDS011;33068;51.990;5.926;2022-11-15T14:16:42;0.60;;;0.40;;
47335;SDS011;33068;51.990;5.926;2022-11-15T14:19:11;2.00;;;0.50;;
47335;SDS011;33068;51.990;5.926;2022-11-15T14:24:34;0.77;;;0.40;;
47335;SDS011;33068;51.990;5.926;2022-11-15T14:27:15;0.95;;;0.30;;
47335;SDS011;33068;51.990;5.926;2022-11-15T14:29:43;4.25;;;0.55;;
47335;SDS011;33068;51.990;5.926;2022-11-15T14:32:13;0.95;;;0.45;;
47335;SDS011;33068;51.990;5.926;2022-11-15T14:34:42;9.25;;;0.70;;
47335;SDS011;33068;51.990;5.926;2022-11-15T14:37:12;1.05;;;0.50;;
47335;SDS011;33068;51.990;5.926;2022-11-15T14:39:46;2.88;;;0.40;;
47335;SDS011;33068;51.990;5.926;2022-11-15T14:42:13;1.80;;;1.00;;
47335;SDS011;33068;51.990;5.926;2022-11-15T14:44:40;2.25;;;0.50;;
47335;SDS011;33068;51.990;5.926;2022-11-15T14:47:07;0.93;;;0.50;;
47335;SDS011;33068;51.990;5.926;2022-11-15T14:49:35;2.70;;;0.40;;
47335;SDS011;33068;51.990;5.926;2022-11-15T14:52:04;4.45;;;0.50;;
47335;SDS011;33068;51.990;5.926;2022-11-15T14:54:38;6.35;;;0.68;;
47335;SDS011;33068;51.990;5.926;2022-11-15T14:57:05;1.08;;;0.50;;
47335;SDS011;33068;51.990;5.926;2022-11-15T14:59:32;4.63;;;0.60;;
47335;SDS011;33068;51.990;5.926;2022-11-15T15:01:59;1.60;;;0.43;;
47335;SDS011;33068;51.990;5.926;2022-11-15T15:04:26;4.85;;;0.50;;
47335;SDS011;33068;51.990;5.926;2022-11-15T15:06:54;3.58;;;0.50;;
47335;SDS011;33068;51.990;5.926;2022-11-15T15:09:21;2.00;;;0.57;;
47335;SDS011;33068;51.990;5.926;2022-11-15T15:11:48;2.83;;;0.47;;
47335;SDS011;33068;51.990;5.926;2022-11-15T15:14:15;1.73;;;0.60;;
47335;SDS011;33068;51.990;5.926;2022-11-15T15:16:42;2.63;;;0.60;;
47335;SDS011;33068;51.990;5.926;2022-11-15T15:19:09;4.10;;;0.68;;
47335;SDS011;33068;51.990;5.926;2022-11-15T15:21:37;1.33;;;0.60;;
47335;SDS011;33068;51.990;5.926;2022-11-15T15:24:05;2.20;;;0.43;;
47335;SDS011;33068;51.990;5.926;2022-11-15T15:26:35;2.88;;;0.75;;
47335;SDS011;33068;51.990;5.926;2022-11-15T15:29:03;2.15;;;0.52;;
47335;SDS011;33068;51.990;5.926;2022-11-15T15:31:30;4.07;;;0.65;;
47335;SDS011;33068;51.990;5.926;2022-11-15T15:33:58;2.72;;;0.65;;
47335;SDS011;33068;51.990;5.926;2022-11-15T15:36:25;5.05;;;0.70;;
47335;SDS011;33068;51.990;5.926;2022-11-15T15:38:52;2.78;;;0.68;;
47335;SDS011;33068;51.990;5.926;2022-11-15T15:41:20;2.70;;;0.68;;
47335;SDS011;33068;51.990;5.926;2022-11-15T15:43:47;3.00;;;0.70;;
47335;SDS011;33068;51.990;5.926;2022-11-15T15:46:15;2.90;;;0.80;;
47335;SDS011;33068;51.990;5.926;2022-11-15T15:48:43;3.17;;;0.82;;
47335;SDS011;33068;51.990;5.926;2022-11-15T15:51:10;3.22;;;0.90;;
47335;SDS011;33068;51.990;5.926;2022-11-15T15:53:38;4.10;;;0.95;;
47335;SDS011;33068;51.990;5.926;2022-11-15T15:56:05;2.88;;;0.68;;
47335;SDS011;33068;51.990;5.926;2022-11-15T15:58:35;6.20;;;0.80;;
47335;SDS011;33068;51.990;5.926;2022-11-15T16:01:02;2.15;;;0.75;;
47335;SDS011;33068;51.990;5.926;2022-11-15T16:03:29;4.25;;;0.82;;
47335;SDS011;33068;51.990;5.926;2022-11-15T16:05:56;5.32;;;1.15;;
47335;SDS011;33068;51.990;5.926;2022-11-15T16:08:23;3.22;;;0.60;;
47335;SDS011;33068;51.990;5.926;2022-11-15T16:10:52;3.20;;;0.80;;
47335;SDS011;33068;51.990;5.926;2022-11-15T16:13:19;3.17;;;0.55;;
47335;SDS011;33068;51.990;5.926;2022-11-15T16:15:48;3.88;;;0.50;;
47335;SDS011;33068;51.990;5.926;2022-11-15T16:18:18;2.17;;;0.75;;
47335;SDS011;33068;51.990;5.926;2022-11-15T16:20:46;2.03;;;0.60;;
47335;SDS011;33068;51.990;5.926;2022-11-15T16:23:17;3.92;;;0.93;;
47335;SDS011;33068;51.990;5.926;2022-11-15T16:25:49;2.72;;;0.47;;
47335;SDS011;33068;51.990;5.926;2022-11-15T16:28:18;2.88;;;0.68;;
47335;SDS011;33068;51.990;5.926;2022-11-15T16:30:47;0.77;;;0.65;;
47335;SDS011;33068;51.990;5.926;2022-11-15T16:33:16;3.35;;;0.68;;
47335;SDS011;33068;51.990;5.926;2022-11-15T16:35:45;2.05;;;0.52;;
47335;SDS011;33068;51.990;5.926;2022-11-15T16:38:13;4.60;;;0.90;;
47335;SDS011;33068;51.990;5.926;2022-11-15T16:40:41;0.73;;;0.43;;